Cruz, Brazil
Current Conditions -  °F | °C
As of 11:00 AM on Thursday 29 Jan 2015 (Local Time) from SBPB Reporting Station
Clear Clear  
Wind Chill: 93°   Ceiling: Unl
Heat Index: 101°   Visibility: 6mi
Dew Point: 72°   Wind: 18mph
Humidity: 49%   Direction: 70°ENE
Pressure: 29.85"   Gusts: NA
Location:  2.92°S, 40.17°W
Report Text: SBPB 291400Z 07016KT CAVOK 34/22 Q1011
Loading
Personal Weather Stations






























Interactive Weather Map New forecast layout! Learn more

10-Day Weather Forecast

Advertisements
Track Severe Weather on mobile